Denison, Iowa
Current Conditions -  °F | °C
As of 5:15 AM on Sunday 23 Nov 2014 (Local Time) from KDNS Reporting Station
Overcast Overcast  
Wind Chill: 11°   Ceiling: 700
Heat Index: 11°   Visibility: 9mi
Dew Point: 11°   Wind: 14mph
Humidity: 100%   Direction: 180°S
Pressure: 29.45"   Gusts: 22mph
Location:  42.01°N, 95.35°W
Report Text: KDNS 231115Z AUTO 18012G19KT 9SM BKN007 OVC010 11/11 A2945 RMK AO2
Loading
Personal Weather Stations






























Interactive Weather Map New forecast layout! Learn more

10-Day Weather Forecast

Advertisements
Track Severe Weather on mobile